createdAt,value
2024-03-15T00:00:52.983Z,54.95
2024-03-15T00:03:19.565Z,55.14
2024-03-15T00:05:46.109Z,55.23
2024-03-15T00:08:12.572Z,55.23
2024-03-15T00:10:39.051Z,55.51
2024-03-15T00:13:05.681Z,55.56
2024-03-15T00:15:32.206Z,55.24
2024-03-15T00:17:59.815Z,55.49
2024-03-15T00:20:26.279Z,55.80
2024-03-15T00:22:52.677Z,55.25
2024-03-15T00:25:22.568Z,55.47
2024-03-15T00:27:49.933Z,55.27
2024-03-15T00:30:16.701Z,55.35
2024-03-15T00:32:43.762Z,55.47
2024-03-15T00:35:10.580Z,55.56
2024-03-15T00:37:37.461Z,55.75
2024-03-15T00:40:04.848Z,55.44
2024-03-15T00:42:31.896Z,55.55
2024-03-15T00:44:59.099Z,55.75
2024-03-15T00:47:25.629Z,55.76
2024-03-15T00:49:52.128Z,55.76
2024-03-15T00:52:18.901Z,56.04
2024-03-15T00:54:47.161Z,55.85
2024-03-15T00:57:13.815Z,56.08
2024-03-15T00:59:40.710Z,56.22
2024-03-15T01:02:07.328Z,56.44
2024-03-15T01:04:33.921Z,56.80
2024-03-15T01:07:00.365Z,56.51
2024-03-15T01:09:26.863Z,56.85
2024-03-15T01:11:53.320Z,57.09
2024-03-15T01:14:19.841Z,57.28
2024-03-15T01:16:47.514Z,57.40
2024-03-15T01:19:14.968Z,57.33
2024-03-15T01:21:41.567Z,57.70
2024-03-15T01:24:08.552Z,57.71
2024-03-15T01:26:36.526Z,57.71
2024-03-15T01:29:02.975Z,57.67
2024-03-15T01:31:29.424Z,57.67
2024-03-15T01:33:56.891Z,57.74
2024-03-15T01:36:23.654Z,57.84
2024-03-15T01:38:50.116Z,57.68
2024-03-15T01:41:16.535Z,57.33
2024-03-15T01:43:49.516Z,57.54
2024-03-15T01:46:16.031Z,57.80
2024-03-15T01:48:43.953Z,57.72
2024-03-15T01:51:10.480Z,57.85
2024-03-15T01:53:37.750Z,57.66
2024-03-15T01:56:04.247Z,57.79
2024-03-15T01:58:31.347Z,58.02
2024-03-15T02:00:58.165Z,57.99
2024-03-15T02:03:24.967Z,58.00
2024-03-15T02:05:51.533Z,58.05
2024-03-15T02:08:19.946Z,58.30
2024-03-15T02:10:47.069Z,58.37
2024-03-15T02:13:17.014Z,58.58
2024-03-15T02:15:43.918Z,58.82
2024-03-15T02:18:10.639Z,58.72
2024-03-15T02:20:37.206Z,59.13
2024-03-15T02:23:06.480Z,59.45
2024-03-15T02:25:32.954Z,59.39
2024-03-15T02:27:59.621Z,59.82
2024-03-15T02:30:26.856Z,60.03
2024-03-15T02:32:53.560Z,59.97
2024-03-15T02:35:27.774Z,60.41
2024-03-15T02:37:59.002Z,60.25
2024-03-15T02:40:25.830Z,60.18
2024-03-15T02:42:52.898Z,60.16
2024-03-15T02:45:22.479Z,60.25
2024-03-15T02:47:49.263Z,60.50
2024-03-15T02:50:15.792Z,59.88
2024-03-15T02:52:44.696Z,59.81
2024-03-15T02:55:12.060Z,60.20
2024-03-15T02:57:38.509Z,60.01
2024-03-15T03:00:05.392Z,59.98
2024-03-15T03:02:31.864Z,60.03
2024-03-15T03:04:58.333Z,59.94
2024-03-15T03:07:25.808Z,60.24
2024-03-15T03:09:53.037Z,59.87
2024-03-15T03:12:19.519Z,59.88
2024-03-15T03:14:46.623Z,59.83
2024-03-15T03:17:14.121Z,59.32
2024-03-15T03:19:40.520Z,59.29
2024-03-15T03:22:07.359Z,59.68
2024-03-15T03:24:34.146Z,59.53
2024-03-15T03:27:01.100Z,59.32
2024-03-15T03:29:27.878Z,59.10
2024-03-15T03:31:54.366Z,59.37
2024-03-15T03:34:20.790Z,59.49
2024-03-15T03:36:47.712Z,59.80
2024-03-15T03:39:14.986Z,59.67
2024-03-15T03:41:41.650Z,59.54
2024-03-15T03:44:08.724Z,59.55
2024-03-15T03:46:35.232Z,59.86
2024-03-15T03:49:02.179Z,59.67
2024-03-15T03:51:28.672Z,59.75
2024-03-15T03:53:55.178Z,59.29
2024-03-15T03:56:21.585Z,59.67
2024-03-15T03:58:48.104Z,59.69
2024-03-15T04:01:18.285Z,59.98
2024-03-15T04:03:46.188Z,59.70
2024-03-15T04:06:12.752Z,60.13
2024-03-15T04:08:39.275Z,59.90
2024-03-15T04:11:05.749Z,60.31
2024-03-15T04:13:32.410Z,59.83
2024-03-15T04:15:59.070Z,60.29
2024-03-15T04:18:25.612Z,60.09
2024-03-15T04:20:53.348Z,60.20
2024-03-15T04:23:22.287Z,60.23
2024-03-15T04:25:49.943Z,60.11
2024-03-15T04:28:19.519Z,60.03
2024-03-15T04:30:46.962Z,60.20
2024-03-15T04:33:13.668Z,60.09
2024-03-15T04:35:41.428Z,60.44
2024-03-15T04:38:08.079Z,60.45
2024-03-15T04:40:35.655Z,60.23
2024-03-15T04:43:02.138Z,60.52
2024-03-15T04:45:28.652Z,60.47
2024-03-15T04:47:55.975Z,60.60
2024-03-15T04:50:22.512Z,60.62
2024-03-15T04:52:49.268Z,60.64
2024-03-15T04:55:15.710Z,60.51
2024-03-15T04:57:42.256Z,60.70
2024-03-15T05:00:18.503Z,60.58
2024-03-15T05:02:52.095Z,60.57
2024-03-15T05:05:23.342Z,60.39
2024-03-15T05:07:50.163Z,60.64
2024-03-15T05:10:18.455Z,60.53
2024-03-15T05:12:45.814Z,60.50
2024-03-15T05:15:13.458Z,60.57
2024-03-15T05:17:40.484Z,60.62
2024-03-15T05:20:14.535Z,60.54
2024-03-15T05:22:44.696Z,60.66
2024-03-15T05:25:15.102Z,60.72
2024-03-15T05:27:41.903Z,60.72
2024-03-15T05:30:09.210Z,60.77
2024-03-15T05:32:35.838Z,60.84
2024-03-15T05:35:02.368Z,60.90
2024-03-15T05:37:29.541Z,61.04
2024-03-15T05:39:56.401Z,60.77
2024-03-15T05:42:23.446Z,61.13
2024-03-15T05:44:49.895Z,61.50
2024-03-15T05:47:17.523Z,61.32
2024-03-15T05:49:44.008Z,61.36
2024-03-15T05:52:12.185Z,61.46
2024-03-15T05:54:38.875Z,61.61
2024-03-15T05:57:05.696Z,61.65
2024-03-15T05:59:35.013Z,61.64
2024-03-15T06:02:02.171Z,61.63
2024-03-15T06:04:28.631Z,61.92
2024-03-15T06:06:55.167Z,61.96
2024-03-15T06:09:21.607Z,61.72
2024-03-15T06:11:50.320Z,61.77
2024-03-15T06:14:17.180Z,62.16
2024-03-15T06:16:44.621Z,62.25
2024-03-15T06:19:11.200Z,61.99
2024-03-15T06:21:37.823Z,61.90
2024-03-15T06:24:05.143Z,62.07
2024-03-15T06:26:31.534Z,62.11
2024-03-15T06:28:58.623Z,62.16
2024-03-15T06:31:25.551Z,61.94
2024-03-15T06:33:52.172Z,62.09
2024-03-15T06:36:20.341Z,61.83
2024-03-15T06:38:47.040Z,61.82
2024-03-15T06:41:15.329Z,61.57
2024-03-15T06:44:00.439Z,61.35
2024-03-15T06:46:45.522Z,61.45
2024-03-15T06:49:14.616Z,61.09
2024-03-15T06:51:59.821Z,61.18
2024-03-15T06:54:27.825Z,60.96
2024-03-15T06:56:55.406Z,61.21
2024-03-15T06:59:21.866Z,61.37
2024-03-15T07:01:48.452Z,61.18
2024-03-15T07:04:15.843Z,61.20
2024-03-15T07:06:42.756Z,60.87
2024-03-15T07:09:16.321Z,60.72
2024-03-15T07:11:48.236Z,60.36
2024-03-15T07:14:14.752Z,60.91
2024-03-15T07:16:41.203Z,60.92
2024-03-15T07:19:08.018Z,61.10
2024-03-15T07:21:34.687Z,60.44
2024-03-15T07:24:01.897Z,60.76
2024-03-15T07:26:29.592Z,61.02
2024-03-15T07:28:57.003Z,60.69
2024-03-15T07:31:24.044Z,60.92
2024-03-15T07:33:50.539Z,60.89
2024-03-15T07:36:19.490Z,60.60
2024-03-15T07:38:47.088Z,60.95
2024-03-15T07:41:13.524Z,61.03
2024-03-15T07:43:40.081Z,60.81
2024-03-15T07:46:07.113Z,61.01
2024-03-15T07:48:33.685Z,60.97
2024-03-15T07:51:00.943Z,61.14
2024-03-15T07:53:27.850Z,61.51
2024-03-15T07:55:55.288Z,61.22
2024-03-15T07:58:21.818Z,61.28
2024-03-15T08:00:48.537Z,61.45
2024-03-15T08:03:15.233Z,61.72
2024-03-15T08:05:41.742Z,61.45
2024-03-15T08:08:08.140Z,61.50
2024-03-15T08:10:34.924Z,61.46
2024-03-15T08:13:01.801Z,61.91
2024-03-15T08:15:33.627Z,61.55
2024-03-15T08:18:01.329Z,61.01
2024-03-15T08:20:28.008Z,61.30
2024-03-15T08:22:56.909Z,61.07
2024-03-15T08:25:24.300Z,60.75
2024-03-15T08:27:51.321Z,60.86
2024-03-15T08:30:18.860Z,60.46
2024-03-15T08:32:45.623Z,60.53
2024-03-15T08:35:15.551Z,60.38
2024-03-15T08:37:45.189Z,60.63
2024-03-15T08:40:14.301Z,60.50
2024-03-15T08:42:41.678Z,60.53
2024-03-15T08:45:10.236Z,60.89
2024-03-15T08:47:50.973Z,61.04
2024-03-15T08:50:27.972Z,61.08
2024-03-15T08:52:54.453Z,60.92
2024-03-15T08:55:22.279Z,60.90
2024-03-15T08:57:48.921Z,60.37
2024-03-15T09:00:15.719Z,60.43
2024-03-15T09:02:42.269Z,60.53
2024-03-15T09:05:11.976Z,59.83
2024-03-15T09:07:39.586Z,59.41
2024-03-15T09:10:16.114Z,59.91
2024-03-15T09:12:46.558Z,59.80
2024-03-15T09:15:13.809Z,59.65
2024-03-15T09:17:41.238Z,59.50
2024-03-15T09:20:31.285Z,59.61
2024-03-15T09:22:58.033Z,59.69
2024-03-15T09:25:27.157Z,59.38
2024-03-15T09:27:54.686Z,59.36
2024-03-15T09:30:27.787Z,59.31
2024-03-15T09:32:54.830Z,59.15
2024-03-15T09:35:21.971Z,58.95
2024-03-15T09:37:51.744Z,58.79
2024-03-15T09:40:19.735Z,58.81
2024-03-15T09:42:50.286Z,58.97
2024-03-15T09:45:20.395Z,58.87
2024-03-15T09:47:52.831Z,58.71
2024-03-15T09:50:25.935Z,58.24
2024-03-15T09:52:52.874Z,58.38
2024-03-15T09:55:20.739Z,57.99
2024-03-15T09:57:50.174Z,57.15
2024-03-15T10:00:17.330Z,56.52
2024-03-15T10:02:48.470Z,56.52
2024-03-15T10:05:15.431Z,56.17
2024-03-15T10:07:42.522Z,56.29
2024-03-15T10:10:13.669Z,56.55
2024-03-15T10:12:45.460Z,56.27
2024-03-15T10:15:14.806Z,56.21
2024-03-15T10:17:42.559Z,56.15
2024-03-15T10:20:15.822Z,56.47
2024-03-15T10:22:42.891Z,55.97
2024-03-15T10:25:17.088Z,55.57
2024-03-15T10:27:44.698Z,55.51
2024-03-15T10:30:19.062Z,55.24
2024-03-15T10:32:48.870Z,55.61
2024-03-15T10:35:16.959Z,55.86
2024-03-15T10:37:44.648Z,55.18
2024-03-15T10:40:14.767Z,55.09
2024-03-15T10:42:43.535Z,55.08
2024-03-15T10:45:14.541Z,54.10
2024-03-15T10:47:47.176Z,52.78
2024-03-15T10:50:16.816Z,52.14
2024-03-15T10:52:47.975Z,51.98
2024-03-15T10:55:21.620Z,51.49
2024-03-15T10:57:48.558Z,51.41
2024-03-15T11:00:27.638Z,51.16
2024-03-15T11:02:55.745Z,51.38
2024-03-15T11:05:27.662Z,52.13
2024-03-15T11:08:09.276Z,51.48
2024-03-15T11:10:39.811Z,51.79
2024-03-15T11:13:10.703Z,50.80
2024-03-15T11:15:38.830Z,50.74
2024-03-15T11:18:12.741Z,50.27
2024-03-15T11:20:51.116Z,50.02
2024-03-15T11:23:20.357Z,49.85
2024-03-15T11:25:56.770Z,49.64
2024-03-15T11:28:25.143Z,49.12
2024-03-15T11:30:51.664Z,48.61
2024-03-15T11:33:18.841Z,47.97
2024-03-15T11:35:46.014Z,48.10
2024-03-15T11:38:13.291Z,48.06
2024-03-15T11:40:41.558Z,48.15
2024-03-15T11:43:13.984Z,47.66
2024-03-15T11:45:43.421Z,47.92
2024-03-15T11:48:25.034Z,48.57
2024-03-15T11:50:53.674Z,48.72
2024-03-15T11:53:23.277Z,49.41
2024-03-15T11:55:51.566Z,49.37
2024-03-15T11:58:20.059Z,48.93
2024-03-15T12:00:48.990Z,48.90
2024-03-15T12:03:17.294Z,48.85
2024-03-15T12:05:45.164Z,48.97
2024-03-15T12:08:16.542Z,49.55
2024-03-15T12:10:45.731Z,49.53
2024-03-15T12:13:19.661Z,50.30
2024-03-15T12:15:47.582Z,50.85
2024-03-15T12:18:19.868Z,51.27
2024-03-15T12:20:47.872Z,52.32
2024-03-15T12:23:19.096Z,52.63
2024-03-15T12:25:46.592Z,53.26
2024-03-15T12:28:15.194Z,54.56
2024-03-15T12:30:43.827Z,54.06
2024-03-15T12:33:14.053Z,53.31
2024-03-15T12:35:41.775Z,54.37
2024-03-15T12:38:13.728Z,54.94
2024-03-15T12:40:44.295Z,56.56
2024-03-15T12:43:11.724Z,56.18
2024-03-15T12:45:44.823Z,57.33
2024-03-15T12:48:13.052Z,57.47
2024-03-15T12:50:39.981Z,57.29
2024-03-15T12:53:13.018Z,57.67
2024-03-15T12:55:41.305Z,57.96
2024-03-15T12:58:08.850Z,57.48
2024-03-15T13:00:35.626Z,57.20
2024-03-15T13:03:02.409Z,57.96
2024-03-15T13:05:28.835Z,56.75
2024-03-15T13:07:55.264Z,55.98
2024-03-15T13:10:21.951Z,55.25
2024-03-15T13:12:53.787Z,55.54
2024-03-15T13:15:20.921Z,55.23
2024-03-15T13:17:53.977Z,55.83
2024-03-15T13:20:22.580Z,55.49
2024-03-15T13:22:54.180Z,55.45
2024-03-15T13:25:33.656Z,55.36
2024-03-15T13:28:05.463Z,55.24
2024-03-15T13:30:32.135Z,54.85
2024-03-15T13:33:01.345Z,54.39
2024-03-15T13:35:31.637Z,54.18
2024-03-15T13:37:58.483Z,54.32
2024-03-15T13:40:25.817Z,54.85
2024-03-15T13:42:54.173Z,55.33
2024-03-15T13:45:23.363Z,54.95
2024-03-15T13:48:02.133Z,54.65
2024-03-15T13:50:29.878Z,54.62
2024-03-15T13:52:56.433Z,53.71
2024-03-15T13:55:23.957Z,53.99
2024-03-15T13:57:50.724Z,52.83
2024-03-15T14:00:39.295Z,52.40
2024-03-15T14:03:06.324Z,52.12
2024-03-15T14:05:39.286Z,52.43
2024-03-15T14:08:09.083Z,51.77
2024-03-15T14:10:36.716Z,51.13
2024-03-15T14:13:07.668Z,51.17
2024-03-15T14:15:38.061Z,51.26
2024-03-15T14:18:08.182Z,50.90
2024-03-15T14:20:38.479Z,51.33
2024-03-15T14:23:06.177Z,51.05
2024-03-15T14:25:33.892Z,50.55
2024-03-15T14:28:04.484Z,50.56
2024-03-15T14:30:31.069Z,50.48
2024-03-15T14:32:57.576Z,50.36
2024-03-15T14:35:24.295Z,50.63
2024-03-15T14:37:50.785Z,51.02
2024-03-15T14:40:19.194Z,51.19
2024-03-15T14:42:46.384Z,54.23
2024-03-15T14:45:13.789Z,55.20
2024-03-15T14:47:41.720Z,57.55
2024-03-15T14:50:09.375Z,59.11
2024-03-15T14:52:36.235Z,60.81
2024-03-15T14:55:04.492Z,62.34
2024-03-15T14:57:31.111Z,64.01
2024-03-15T15:00:01.742Z,65.47
2024-03-15T15:02:28.708Z,66.72
2024-03-15T15:04:55.467Z,67.71
2024-03-15T15:07:24.897Z,68.10
2024-03-15T15:09:52.767Z,69.20
2024-03-15T15:12:20.656Z,70.14
2024-03-15T15:14:47.349Z,70.32
2024-03-15T15:17:14.212Z,70.57
2024-03-15T15:19:41.243Z,70.79
2024-03-15T15:22:08.543Z,70.80
2024-03-15T15:24:35.032Z,71.06
2024-03-15T15:27:01.548Z,70.83
2024-03-15T15:29:31.800Z,70.14
2024-03-15T15:31:58.773Z,69.96
2024-03-15T15:34:29.063Z,69.76
2024-03-15T15:36:56.524Z,70.11
2024-03-15T15:39:23.119Z,70.22
2024-03-15T15:41:51.203Z,69.94
2024-03-15T15:44:17.789Z,69.48
2024-03-15T15:46:45.876Z,69.09
2024-03-15T15:49:13.065Z,68.53
2024-03-15T15:51:41.442Z,68.15
2024-03-15T15:54:12.477Z,67.36
2024-03-15T15:56:39.574Z,67.68
2024-03-15T15:59:06.875Z,67.22
2024-03-15T16:01:38.138Z,67.10
2024-03-15T16:04:04.974Z,67.06
2024-03-15T16:06:31.525Z,67.11
2024-03-15T16:08:58.166Z,67.09
2024-03-15T16:11:25.696Z,67.05
2024-03-15T16:13:52.222Z,67.54
2024-03-15T16:16:18.652Z,67.96
2024-03-15T16:18:45.194Z,68.08
2024-03-15T16:21:11.809Z,66.40
2024-03-15T16:23:38.244Z,64.49
2024-03-15T16:26:04.922Z,63.16
2024-03-15T16:28:31.368Z,62.70
2024-03-15T16:30:58.960Z,61.99
2024-03-15T16:33:26.432Z,60.98
2024-03-15T16:35:53.138Z,60.75
2024-03-15T16:42:00.805Z,60.86
2024-03-15T16:44:27.284Z,61.23
2024-03-15T16:46:54.378Z,61.18
2024-03-15T16:49:20.904Z,60.99
2024-03-15T16:51:47.352Z,61.16
2024-03-15T16:54:13.862Z,61.31
2024-03-15T16:56:40.329Z,61.53
2024-03-15T16:59:08.280Z,61.65
2024-03-15T17:01:34.753Z,62.29
2024-03-15T17:04:01.219Z,62.06
2024-03-15T17:06:27.654Z,61.81
2024-03-15T17:08:54.096Z,61.99
2024-03-15T17:11:20.549Z,62.22
2024-03-15T17:13:46.990Z,61.94
2024-03-15T17:16:14.277Z,62.10
2024-03-15T17:18:40.852Z,62.53
2024-03-15T17:21:09.009Z,62.28
2024-03-15T17:23:36.335Z,62.19
2024-03-15T17:26:03.361Z,62.74
2024-03-15T17:28:29.748Z,62.73
2024-03-15T17:30:56.545Z,62.86
2024-03-15T17:33:24.312Z,62.96
2024-03-15T17:35:50.799Z,63.02
2024-03-15T17:38:17.746Z,63.25
2024-03-15T17:40:48.844Z,63.04
2024-03-15T17:43:15.488Z,63.14
2024-03-15T17:45:41.930Z,63.64
2024-03-15T17:48:08.448Z,63.65
2024-03-15T17:50:34.903Z,63.98
2024-03-15T17:53:04.331Z,63.46
2024-03-15T17:55:30.865Z,63.79
2024-03-15T17:57:57.642Z,63.73
2024-03-15T18:00:26.514Z,63.66
2024-03-15T18:02:55.916Z,63.98
2024-03-15T18:05:22.425Z,64.14
2024-03-15T18:07:48.821Z,64.35
2024-03-15T18:10:15.308Z,64.80
2024-03-15T18:12:42.675Z,64.72
2024-03-15T18:15:09.964Z,64.93
2024-03-15T18:17:36.717Z,64.73
2024-03-15T18:20:04.587Z,64.83
2024-03-15T18:22:31.015Z,64.88
2024-03-15T18:24:57.505Z,65.05
2024-03-15T18:27:23.990Z,65.18
2024-03-15T18:29:50.493Z,64.61
2024-03-15T18:32:17.108Z,64.42
2024-03-15T18:34:47.858Z,64.57
2024-03-15T18:37:15.263Z,64.32
2024-03-15T18:39:44.038Z,64.49
2024-03-15T18:42:10.539Z,64.59
2024-03-15T18:44:36.955Z,64.84
2024-03-15T18:47:05.867Z,65.26
2024-03-15T18:49:33.269Z,65.58
2024-03-15T18:51:59.864Z,65.92
2024-03-15T18:54:26.465Z,65.85
2024-03-15T18:56:53.306Z,66.10
2024-03-15T18:59:30.380Z,66.25
2024-03-15T19:01:57.871Z,66.36
2024-03-15T19:04:24.417Z,66.01
2024-03-15T19:06:50.861Z,66.29
2024-03-15T19:09:17.360Z,65.95
2024-03-15T19:11:43.866Z,66.16
2024-03-15T19:14:10.270Z,66.27
2024-03-15T19:16:38.808Z,66.22
2024-03-15T19:19:05.514Z,65.62
2024-03-15T19:21:32.090Z,65.90
2024-03-15T19:23:58.522Z,66.20
2024-03-15T19:26:25.100Z,66.15
2024-03-15T19:28:51.532Z,66.32
2024-03-15T19:31:18.008Z,66.23
2024-03-15T19:33:45.171Z,66.36
2024-03-15T19:36:12.829Z,66.22
2024-03-15T19:38:39.280Z,66.42
2024-03-15T19:41:11.542Z,66.38
2024-03-15T19:43:40.629Z,66.54
2024-03-15T19:46:07.584Z,66.42
2024-03-15T19:48:34.583Z,66.47
2024-03-15T19:51:01.804Z,66.67
2024-03-15T19:53:30.379Z,66.71
2024-03-15T19:55:59.328Z,66.65
2024-03-15T19:58:26.674Z,66.72
2024-03-15T20:00:54.029Z,66.67
2024-03-15T20:03:20.833Z,66.61
2024-03-15T20:05:47.529Z,66.83
2024-03-15T20:08:14.460Z,66.62
2024-03-15T20:10:41.679Z,66.67
2024-03-15T20:13:08.272Z,66.61
2024-03-15T20:15:34.998Z,66.52
2024-03-15T20:18:01.540Z,66.85
2024-03-15T20:20:28.158Z,66.90
2024-03-15T20:22:54.582Z,67.14
2024-03-15T20:25:21.062Z,67.18
2024-03-15T20:27:47.886Z,67.42
2024-03-15T20:30:14.384Z,67.26
2024-03-15T20:32:40.995Z,67.25
2024-03-15T20:35:07.753Z,67.46
2024-03-15T20:37:34.197Z,67.42
2024-03-15T20:40:00.681Z,67.61
2024-03-15T20:42:27.238Z,67.53
2024-03-15T20:44:53.686Z,67.57
2024-03-15T20:47:20.105Z,67.57
2024-03-15T20:49:46.902Z,67.49
2024-03-15T20:52:13.509Z,67.49
2024-03-15T20:54:40.698Z,67.39
2024-03-15T20:57:07.176Z,67.72
2024-03-15T20:59:33.773Z,67.18
2024-03-15T21:02:09.420Z,67.33
2024-03-15T21:04:37.438Z,67.48
2024-03-15T21:07:04.091Z,67.60
2024-03-15T21:09:30.674Z,67.78
2024-03-15T21:11:57.312Z,67.77
2024-03-15T21:14:23.735Z,67.64
2024-03-15T21:16:51.773Z,68.16
2024-03-15T21:19:18.564Z,68.00
2024-03-15T21:21:45.009Z,68.26
2024-03-15T21:24:11.561Z,68.23
2024-03-15T21:26:38.055Z,67.99
2024-03-15T21:29:04.462Z,68.49
2024-03-15T21:31:31.016Z,68.81
2024-03-15T21:33:59.765Z,69.08
2024-03-15T21:36:26.658Z,68.97
2024-03-15T21:38:53.477Z,68.93
2024-03-15T21:41:19.884Z,68.74
2024-03-15T21:43:46.370Z,69.06
2024-03-15T21:46:21.059Z,68.61
2024-03-15T21:48:47.985Z,68.73
2024-03-15T21:51:14.811Z,68.55
2024-03-15T21:53:43.496Z,68.74
2024-03-15T21:56:09.936Z,68.77
2024-03-15T21:58:36.350Z,68.57
2024-03-15T22:01:03.167Z,68.33
2024-03-15T22:03:29.736Z,68.88
2024-03-15T22:05:59.198Z,68.51
2024-03-15T22:08:25.867Z,68.31
2024-03-15T22:10:54.296Z,68.53
2024-03-15T22:13:20.749Z,68.03
2024-03-15T22:15:47.952Z,68.10
2024-03-15T22:18:16.632Z,68.07
2024-03-15T22:20:43.144Z,68.01
2024-03-15T22:23:09.603Z,67.77
2024-03-15T22:25:36.002Z,68.10
2024-03-15T22:28:02.612Z,68.05
2024-03-15T22:30:29.144Z,67.81
2024-03-15T22:32:55.837Z,68.11
2024-03-15T22:35:22.904Z,67.88
2024-03-15T22:37:49.429Z,67.96
2024-03-15T22:40:17.268Z,67.88
2024-03-15T22:42:43.904Z,67.81
2024-03-15T22:45:10.357Z,67.44
2024-03-15T22:47:37.783Z,67.75
2024-03-15T22:50:05.665Z,67.71
2024-03-15T22:52:32.366Z,67.72
2024-03-15T22:54:59.455Z,67.96
2024-03-15T22:57:25.914Z,67.32
2024-03-15T22:59:52.367Z,67.75
2024-03-15T23:02:18.812Z,68.01
2024-03-15T23:04:45.287Z,67.69
2024-03-15T23:07:12.795Z,67.91
2024-03-15T23:09:40.280Z,67.59
2024-03-15T23:12:09.080Z,67.99
2024-03-15T23:14:35.528Z,68.20
2024-03-15T23:17:01.936Z,67.77
2024-03-15T23:19:29.622Z,67.97
2024-03-15T23:21:56.133Z,68.12
2024-03-15T23:24:22.627Z,67.71
2024-03-15T23:26:49.035Z,67.72
2024-03-15T23:29:17.890Z,67.78
2024-03-15T23:31:44.604Z,67.70
2024-03-15T23:34:11.544Z,67.86
2024-03-15T23:36:37.965Z,67.81
2024-03-15T23:39:05.455Z,67.50
2024-03-15T23:41:33.931Z,67.71
2024-03-15T23:44:02.242Z,67.71
2024-03-15T23:46:28.684Z,67.73
2024-03-15T23:48:55.106Z,67.71
2024-03-15T23:51:21.804Z,67.82
2024-03-15T23:53:48.757Z,67.51
2024-03-15T23:56:15.844Z,67.73
2024-03-15T23:58:42.276Z,68.06
